createdAt,value
2019-03-15T00:00:00.342Z,997.86
2019-03-15T00:00:26.546Z,997.85
2019-03-15T00:00:52.706Z,997.91
2019-03-15T00:01:18.817Z,997.88
2019-03-15T00:01:44.920Z,997.85
2019-03-15T00:02:11.109Z,997.83
2019-03-15T00:02:37.174Z,997.84
2019-03-15T00:03:03.286Z,997.84
2019-03-15T00:03:29.385Z,997.82
2019-03-15T00:03:55.489Z,997.82
2019-03-15T00:04:21.628Z,997.86
2019-03-15T00:04:48.719Z,997.85
2019-03-15T00:05:14.833Z,997.86
2019-03-15T00:05:40.939Z,997.85
2019-03-15T00:06:07.047Z,997.86
2019-03-15T00:06:33.151Z,997.9
2019-03-15T00:06:59.261Z,997.86
2019-03-15T00:07:25.404Z,997.83
2019-03-15T00:07:51.735Z,997.85
2019-03-15T00:08:17.849Z,997.81
2019-03-15T00:08:43.949Z,997.84
2019-03-15T00:09:10.064Z,997.86
2019-03-15T00:09:36.178Z,997.86
2019-03-15T00:10:02.282Z,997.95
2019-03-15T00:10:28.393Z,997.88
2019-03-15T00:10:54.907Z,997.92
2019-03-15T00:11:21.006Z,997.92
2019-03-15T00:11:47.112Z,997.99
2019-03-15T00:12:13.222Z,998
2019-03-15T00:12:39.323Z,997.97
2019-03-15T00:13:05.433Z,998.02
2019-03-15T00:13:31.542Z,997.98
2019-03-15T00:13:57.646Z,997.99
2019-03-15T00:14:23.755Z,998.03
2019-03-15T00:14:49.871Z,997.97
2019-03-15T00:15:16.129Z,997.99
2019-03-15T00:15:42.236Z,997.93
2019-03-15T00:16:08.345Z,997.91
2019-03-15T00:16:34.448Z,997.98
2019-03-15T00:17:00.833Z,997.97
2019-03-15T00:17:26.934Z,997.92
2019-03-15T00:17:53.047Z,997.93
2019-03-15T00:18:19.142Z,997.99
2019-03-15T00:18:45.253Z,997.97
2019-03-15T00:19:11.365Z,997.98
2019-03-15T00:19:37.473Z,997.99
2019-03-15T00:20:03.673Z,998.02
2019-03-15T00:20:29.777Z,997.96
2019-03-15T00:20:55.888Z,997.95
2019-03-15T00:21:22.002Z,997.91
2019-03-15T00:21:48.130Z,997.97
2019-03-15T00:22:14.238Z,997.91
2019-03-15T00:22:40.341Z,997.94
2019-03-15T00:23:06.481Z,997.91
2019-03-15T00:23:32.583Z,997.94
2019-03-15T00:23:58.689Z,997.92
2019-03-15T00:24:24.799Z,997.92
2019-03-15T00:24:50.912Z,997.92
2019-03-15T00:25:17.041Z,997.95
2019-03-15T00:25:43.153Z,997.98
2019-03-15T00:26:10.247Z,997.98
2019-03-15T00:26:36.360Z,997.94
2019-03-15T00:27:02.469Z,997.98
2019-03-15T00:27:28.576Z,997.98
2019-03-15T00:27:54.683Z,998.01
2019-03-15T00:28:20.788Z,998.01
2019-03-15T00:28:46.933Z,998.01
2019-03-15T00:29:13.047Z,997.98
2019-03-15T00:29:39.228Z,998.02
2019-03-15T00:30:05.359Z,998.02
2019-03-15T00:30:31.459Z,998.01
2019-03-15T00:30:58.403Z,998.08
2019-03-15T00:31:24.504Z,998.08
2019-03-15T00:31:50.607Z,998.06
2019-03-15T00:32:16.719Z,998.04
2019-03-15T00:32:42.828Z,998.04
2019-03-15T00:33:09.202Z,998.07
2019-03-15T00:33:35.316Z,998.1
2019-03-15T00:34:01.423Z,998.06
2019-03-15T00:34:27.527Z,998.09
2019-03-15T00:34:53.648Z,998.06
2019-03-15T00:35:20.186Z,998.13
2019-03-15T00:35:46.308Z,998.11
2019-03-15T00:36:12.410Z,998.11
2019-03-15T00:36:38.529Z,998.16
2019-03-15T00:37:04.661Z,998.17
2019-03-15T00:37:30.975Z,998.13
2019-03-15T00:37:57.049Z,998.12
2019-03-15T00:38:23.912Z,998.11
2019-03-15T00:38:50.037Z,998.16
2019-03-15T00:39:16.172Z,998.11
2019-03-15T00:39:42.775Z,998.16
2019-03-15T00:40:08.889Z,998.1
2019-03-15T00:40:34.995Z,998.08
2019-03-15T00:41:01.138Z,998.06
2019-03-15T00:41:27.267Z,998.13
2019-03-15T00:41:53.376Z,998.09
2019-03-15T00:42:19.506Z,998.1
2019-03-15T00:42:45.645Z,998.09
2019-03-15T00:43:11.757Z,998.11
2019-03-15T00:43:37.870Z,998.09
2019-03-15T00:44:05.001Z,998.06
2019-03-15T00:44:31.116Z,998.09
2019-03-15T00:44:57.217Z,998.1
2019-03-15T00:45:24.119Z,998.12
2019-03-15T00:45:50.225Z,998.13
2019-03-15T00:46:16.362Z,998.21
2019-03-15T00:46:42.476Z,998.19
2019-03-15T00:47:08.598Z,998.16
2019-03-15T00:47:34.705Z,998.22
2019-03-15T00:48:00.806Z,998.19
2019-03-15T00:48:26.921Z,998.21
2019-03-15T00:48:53.055Z,998.21
2019-03-15T00:49:19.168Z,998.18
2019-03-15T00:49:45.275Z,998.16
2019-03-15T00:50:11.387Z,998.13
2019-03-15T00:50:37.492Z,998.16
2019-03-15T00:51:03.637Z,998.15
2019-03-15T00:51:29.744Z,998.19
2019-03-15T00:51:55.900Z,998.17
2019-03-15T00:52:22.007Z,998.19
2019-03-15T00:52:48.113Z,998.2
2019-03-15T00:53:14.531Z,998.19
2019-03-15T00:53:40.639Z,998.21
2019-03-15T00:54:07.766Z,998.14
2019-03-15T00:54:33.877Z,998.18
2019-03-15T00:54:59.979Z,998.13
2019-03-15T00:55:26.083Z,998.23
2019-03-15T00:55:52.189Z,998.06
2019-03-15T00:56:18.406Z,998.13
2019-03-15T00:56:44.518Z,998.2
2019-03-15T00:57:10.619Z,998.19
2019-03-15T00:57:36.732Z,998.19
2019-03-15T00:58:02.841Z,998.25
2019-03-15T00:58:28.946Z,998.23
2019-03-15T00:58:55.058Z,998.32
2019-03-15T00:59:21.211Z,998.27
2019-03-15T00:59:47.326Z,998.32
2019-03-15T01:00:13.429Z,998.28
2019-03-15T01:00:39.539Z,998.32
2019-03-15T01:01:05.890Z,998.34
2019-03-15T01:01:32.029Z,998.39
2019-03-15T01:01:58.159Z,998.33
2019-03-15T01:02:24.274Z,998.32
2019-03-15T01:02:50.385Z,998.39
2019-03-15T01:03:16.494Z,998.39
2019-03-15T01:03:42.605Z,998.43
2019-03-15T01:04:09.548Z,998.42
2019-03-15T01:04:35.731Z,998.37
2019-03-15T01:05:01.840Z,998.4
2019-03-15T01:05:27.981Z,998.34
2019-03-15T01:05:54.602Z,998.3
2019-03-15T01:06:20.714Z,998.31
2019-03-15T01:06:46.854Z,998.34
2019-03-15T01:07:13.016Z,998.24
2019-03-15T01:07:39.128Z,998.27
2019-03-15T01:08:05.238Z,998.21
2019-03-15T01:08:32.341Z,998.22
2019-03-15T01:08:58.445Z,998.26
2019-03-15T01:09:24.584Z,998.16
2019-03-15T01:09:50.696Z,998.27
2019-03-15T01:10:16.801Z,998.28
2019-03-15T01:10:42.906Z,998.26
2019-03-15T01:11:09.200Z,998.2
2019-03-15T01:11:35.273Z,998.16
2019-03-15T01:12:01.478Z,998.19
2019-03-15T01:12:27.586Z,998.2
2019-03-15T01:12:53.693Z,998.12
2019-03-15T01:13:19.812Z,998.13
2019-03-15T01:13:45.909Z,998.14
2019-03-15T01:14:12.008Z,998.12
2019-03-15T01:14:38.124Z,998.19
2019-03-15T01:15:04.234Z,998.16
2019-03-15T01:15:30.382Z,998.17
2019-03-15T01:15:57.227Z,998.19
2019-03-15T01:16:24.184Z,998.19
2019-03-15T01:16:50.492Z,998.15
2019-03-15T01:17:16.691Z,998.16
2019-03-15T01:17:42.792Z,998.18
2019-03-15T01:18:08.903Z,998.22
2019-03-15T01:18:35.005Z,998.21
2019-03-15T01:19:01.108Z,998.19
2019-03-15T01:19:27.210Z,998.21
2019-03-15T01:19:53.321Z,998.21
2019-03-15T01:20:19.422Z,998.17
2019-03-15T01:20:45.550Z,998.22
2019-03-15T01:21:11.662Z,998.22
2019-03-15T01:21:37.771Z,998.21
2019-03-15T01:22:03.880Z,998.22
2019-03-15T01:22:30.003Z,998.24
2019-03-15T01:22:56.111Z,998.25
2019-03-15T01:23:22.220Z,998.21
2019-03-15T01:23:48.323Z,998.2
2019-03-15T01:24:14.427Z,998.23
2019-03-15T01:24:40.539Z,998.2
2019-03-15T01:25:06.650Z,998.23
2019-03-15T01:25:32.750Z,998.23
2019-03-15T01:25:58.852Z,998.24
2019-03-15T01:26:24.958Z,998.22
2019-03-15T01:26:51.073Z,998.21
2019-03-15T01:27:17.174Z,998.2
2019-03-15T01:27:43.317Z,998.18
2019-03-15T01:28:09.420Z,998.14
2019-03-15T01:28:35.527Z,998.2
2019-03-15T01:29:01.640Z,998.17
2019-03-15T01:29:27.778Z,998.22
2019-03-15T01:29:53.919Z,998.19
2019-03-15T01:30:20.028Z,998.17
2019-03-15T01:30:46.132Z,998.18
2019-03-15T01:31:12.246Z,998.23
2019-03-15T01:31:38.348Z,998.23
2019-03-15T01:32:04.455Z,998.21
2019-03-15T01:32:30.564Z,998.24
2019-03-15T01:32:56.703Z,998.22
2019-03-15T01:33:22.810Z,998.25
2019-03-15T01:33:48.924Z,998.19
2019-03-15T01:34:15.173Z,998.17
2019-03-15T01:34:41.218Z,998.15
2019-03-15T01:35:07.362Z,998.14
2019-03-15T01:35:34.081Z,998.19
2019-03-15T01:36:00.168Z,998.14
2019-03-15T01:36:26.281Z,998.17
2019-03-15T01:36:52.411Z,998.18
2019-03-15T01:37:18.524Z,998.15
2019-03-15T01:37:44.629Z,998.13
2019-03-15T01:38:10.762Z,998.16
2019-03-15T01:38:36.868Z,998.17
2019-03-15T01:39:02.978Z,998.2
2019-03-15T01:39:29.120Z,998.21
2019-03-15T01:39:56.222Z,998.19
2019-03-15T01:40:22.327Z,998.18
2019-03-15T01:40:49.380Z,998.2
2019-03-15T01:41:15.828Z,998.21
2019-03-15T01:41:41.928Z,998.17
2019-03-15T01:42:08.040Z,998.21
2019-03-15T01:42:34.189Z,998.15
2019-03-15T01:43:00.286Z,998.19
2019-03-15T01:43:26.398Z,998.22
2019-03-15T01:43:52.502Z,998.18
2019-03-15T01:44:19.218Z,998.18
2019-03-15T01:44:45.324Z,998.2
2019-03-15T01:45:11.429Z,998.29
2019-03-15T01:45:37.538Z,998.31
2019-03-15T01:46:04.360Z,998.25
2019-03-15T01:46:30.489Z,998.31
2019-03-15T01:46:56.601Z,998.29
2019-03-15T01:47:22.734Z,998.3
2019-03-15T01:47:48.842Z,998.29
2019-03-15T01:48:14.941Z,998.29
2019-03-15T01:48:41.050Z,998.32
2019-03-15T01:49:07.172Z,998.29
2019-03-15T01:49:33.622Z,998.28
2019-03-15T01:50:00.519Z,998.26
2019-03-15T01:50:26.632Z,998.23
2019-03-15T01:50:52.739Z,998.2
2019-03-15T01:51:18.850Z,998.19
2019-03-15T01:51:44.986Z,998.25
2019-03-15T01:52:11.091Z,998.18
2019-03-15T01:52:37.221Z,998.21
2019-03-15T01:53:03.730Z,998.22
2019-03-15T01:53:29.947Z,998.27
2019-03-15T01:53:55.979Z,998.31
2019-03-15T01:54:22.110Z,998.2
2019-03-15T01:54:48.252Z,998.29
2019-03-15T01:55:14.361Z,998.27
2019-03-15T01:55:40.500Z,998.28
2019-03-15T01:56:06.603Z,998.24
2019-03-15T01:56:32.715Z,998.27
2019-03-15T01:56:58.851Z,998.23
2019-03-15T01:57:24.988Z,998.23
2019-03-15T01:57:51.099Z,998.23
2019-03-15T01:58:17.235Z,998.21
2019-03-15T01:58:43.344Z,998.21
2019-03-15T01:59:09.454Z,998.18
2019-03-15T01:59:35.675Z,998.18
2019-03-15T02:00:01.782Z,998.2
2019-03-15T02:00:27.895Z,998.25
2019-03-15T02:00:54.447Z,998.17
2019-03-15T02:01:20.551Z,998.14
2019-03-15T02:01:46.681Z,998.17
2019-03-15T02:02:12.795Z,998.21
2019-03-15T02:02:38.902Z,998.15
2019-03-15T02:03:06.000Z,998.17
2019-03-15T02:03:32.110Z,998.15
2019-03-15T02:03:58.213Z,998.13
2019-03-15T02:04:24.323Z,998.14
2019-03-15T02:04:50.425Z,998.2
2019-03-15T02:05:16.532Z,998.03
2019-03-15T02:05:42.641Z,998.12
2019-03-15T02:06:08.746Z,998.11
2019-03-15T02:06:34.854Z,998.12
2019-03-15T02:07:00.969Z,998.17
2019-03-15T02:07:27.069Z,998.15
2019-03-15T02:07:53.183Z,998.1
2019-03-15T02:08:19.318Z,998.1
2019-03-15T02:08:45.425Z,998.1
2019-03-15T02:09:12.519Z,998.02
2019-03-15T02:09:39.526Z,998.06
2019-03-15T02:10:05.635Z,998.07
2019-03-15T02:10:31.982Z,998.1
2019-03-15T02:10:58.536Z,998.04
2019-03-15T02:11:24.742Z,998.09
2019-03-15T02:11:50.846Z,998.07
2019-03-15T02:12:16.954Z,998.04
2019-03-15T02:12:43.053Z,998.09
2019-03-15T02:13:09.183Z,998.08
2019-03-15T02:13:35.291Z,998.08
2019-03-15T02:14:01.752Z,997.98
2019-03-15T02:14:27.679Z,998.05
2019-03-15T02:14:53.760Z,998.05
2019-03-15T02:15:19.904Z,998.08
2019-03-15T02:15:46.004Z,998.08
2019-03-15T02:16:12.113Z,998.09
2019-03-15T02:16:38.221Z,998.06
2019-03-15T02:17:04.329Z,998.09
2019-03-15T02:17:30.432Z,998.04
2019-03-15T02:17:56.549Z,998.01
2019-03-15T02:18:22.694Z,998.07
2019-03-15T02:18:49.555Z,998.06
2019-03-15T02:19:15.767Z,998.07
2019-03-15T02:19:41.903Z,998.07
2019-03-15T02:20:08.011Z,998.04
2019-03-15T02:20:34.126Z,998.02
2019-03-15T02:21:00.236Z,998.03
2019-03-15T02:21:26.340Z,998.06
2019-03-15T02:21:52.457Z,998.02
2019-03-15T02:22:18.589Z,998.01
2019-03-15T02:22:44.694Z,998.03
2019-03-15T02:23:10.799Z,998.04
2019-03-15T02:23:36.903Z,998.02
2019-03-15T02:24:04.005Z,998.02
2019-03-15T02:24:30.159Z,997.99
2019-03-15T02:24:56.297Z,997.99
2019-03-15T02:25:22.429Z,997.95
2019-03-15T02:25:48.601Z,998.01
2019-03-15T02:26:14.706Z,998.02
2019-03-15T02:26:40.817Z,997.99
2019-03-15T02:27:06.957Z,998
2019-03-15T02:27:33.061Z,998.04
2019-03-15T02:27:59.167Z,998
2019-03-15T02:28:25.279Z,998.02
2019-03-15T02:28:51.386Z,998.02
2019-03-15T02:29:17.493Z,998.05
2019-03-15T02:29:43.615Z,998.04
2019-03-15T02:30:09.732Z,998.02
2019-03-15T02:30:35.897Z,998.07
2019-03-15T02:31:01.999Z,998.01
2019-03-15T02:31:28.104Z,998.01
2019-03-15T02:31:54.214Z,998.03
2019-03-15T02:32:20.487Z,998.07
2019-03-15T02:32:46.657Z,998
2019-03-15T02:33:12.736Z,997.98
2019-03-15T02:33:39.428Z,997.99
2019-03-15T02:34:05.562Z,998.03
2019-03-15T02:34:32.640Z,998.03
2019-03-15T02:34:59.313Z,998
2019-03-15T02:35:25.806Z,998.04
2019-03-15T02:35:52.615Z,998.03
2019-03-15T02:36:19.426Z,998.04
2019-03-15T02:36:45.637Z,998.06
2019-03-15T02:37:12.378Z,998.05
2019-03-15T02:37:39.104Z,998.05
2019-03-15T02:38:05.561Z,998.09
2019-03-15T02:38:31.715Z,998.07
2019-03-15T02:38:58.856Z,998.11
2019-03-15T02:39:25.348Z,998.08
2019-03-15T02:39:51.689Z,998.07
2019-03-15T02:40:18.346Z,998.04
2019-03-15T02:40:44.483Z,998.04
2019-03-15T02:41:10.684Z,998.04
2019-03-15T02:41:37.334Z,998.07
2019-03-15T02:42:04.299Z,998.05
2019-03-15T02:42:31.710Z,997.98
2019-03-15T02:42:58.612Z,998.05
2019-03-15T02:43:24.722Z,998.04
2019-03-15T02:43:51.322Z,998.05
2019-03-15T02:44:17.460Z,998.07
2019-03-15T02:44:44.516Z,998.11
2019-03-15T02:45:11.668Z,998.05
2019-03-15T02:45:38.510Z,998.12
2019-03-15T02:46:04.649Z,998.08
2019-03-15T02:46:31.227Z,998.03
2019-03-15T02:46:57.805Z,998.07
2019-03-15T02:47:24.738Z,998.05
2019-03-15T02:47:51.747Z,998.06
2019-03-15T02:48:18.842Z,998
2019-03-15T02:48:45.004Z,998
2019-03-15T02:49:11.165Z,997.98
2019-03-15T02:49:37.264Z,998.02
2019-03-15T02:50:03.601Z,998.07
2019-03-15T02:50:29.715Z,998.02
2019-03-15T02:50:56.277Z,998.08
2019-03-15T02:51:23.343Z,998.08
2019-03-15T02:51:50.023Z,998.12
2019-03-15T02:52:16.308Z,998.09
2019-03-15T02:52:42.624Z,998.06
2019-03-15T02:53:09.103Z,998.06
2019-03-15T02:53:34.983Z,998.09
2019-03-15T02:54:01.125Z,998.09
2019-03-15T02:54:27.430Z,998.14
2019-03-15T02:54:54.471Z,998.11
2019-03-15T02:55:21.218Z,998.09
2019-03-15T02:55:48.199Z,998.12
2019-03-15T02:56:14.984Z,998.13
2019-03-15T02:56:42.331Z,998.13
2019-03-15T02:57:08.743Z,998.14
2019-03-15T02:57:35.437Z,998.15
2019-03-15T02:58:02.115Z,998.1
2019-03-15T02:58:28.374Z,998.13
2019-03-15T02:58:54.490Z,998.1
2019-03-15T02:59:21.100Z,998.08
2019-03-15T02:59:47.607Z,998.11
2019-03-15T03:00:14.077Z,998.13
2019-03-15T03:00:41.110Z,998.12
2019-03-15T03:01:07.704Z,998.07
2019-03-15T03:01:34.289Z,998.07
2019-03-15T03:02:00.792Z,998.05
2019-03-15T03:02:27.631Z,998.07
2019-03-15T03:02:54.119Z,998.11
2019-03-15T03:03:20.794Z,998.09
2019-03-15T03:03:47.269Z,998.06
2019-03-15T03:04:14.122Z,998.12
2019-03-15T03:04:40.874Z,998.09
2019-03-15T03:05:07.959Z,998.09
2019-03-15T03:05:34.462Z,998.1
2019-03-15T03:06:01.401Z,998.09
2019-03-15T03:06:28.195Z,998.11
2019-03-15T03:06:54.848Z,998.07
2019-03-15T03:07:21.320Z,998.08
2019-03-15T03:07:48.174Z,998.02
2019-03-15T03:08:14.646Z,998.03
2019-03-15T03:08:41.402Z,998.04
2019-03-15T03:09:07.882Z,997.97
2019-03-15T03:09:34.381Z,997.99
2019-03-15T03:10:01.626Z,998.07
2019-03-15T03:10:29.116Z,998.01
2019-03-15T03:10:53.747Z,997.99
2019-03-15T03:11:19.888Z,997.98
2019-03-15T03:11:46.001Z,998
2019-03-15T03:12:12.159Z,998.01
2019-03-15T03:12:38.618Z,998
2019-03-15T03:13:05.098Z,998.02
2019-03-15T03:13:31.859Z,998.01
2019-03-15T03:13:58.256Z,997.98
2019-03-15T03:14:25.241Z,997.95
2019-03-15T03:14:52.036Z,998.04
2019-03-15T03:15:19.126Z,998.01
2019-03-15T03:15:46.048Z,997.98
2019-03-15T03:16:12.936Z,998.09
2019-03-15T03:16:39.846Z,997.94
2019-03-15T03:17:06.936Z,998.03
2019-03-15T03:17:34.038Z,998.04
2019-03-15T03:18:01.141Z,998.06
2019-03-15T03:18:28.167Z,998.03
2019-03-15T03:18:55.255Z,998.06
2019-03-15T03:19:22.259Z,998.08
2019-03-15T03:19:49.189Z,998.08
2019-03-15T03:20:15.365Z,998.11
2019-03-15T03:20:42.216Z,998.09
2019-03-15T03:21:09.169Z,998.1
2019-03-15T03:21:36.171Z,998.11
2019-03-15T03:22:03.145Z,998.04
2019-03-15T03:22:29.279Z,998.05
2019-03-15T03:22:56.408Z,998.03
2019-03-15T03:23:22.950Z,998
2019-03-15T03:23:49.082Z,997.98
2019-03-15T03:24:15.204Z,998.01
2019-03-15T03:24:41.368Z,997.99
2019-03-15T03:25:07.507Z,997.94
2019-03-15T03:25:33.638Z,997.97
2019-03-15T03:26:00.382Z,997.97
2019-03-15T03:26:26.518Z,997.95
2019-03-15T03:26:52.636Z,997.95
2019-03-15T03:27:18.740Z,997.95
2019-03-15T03:27:44.915Z,997.94
2019-03-15T03:28:11.789Z,997.95
2019-03-15T03:28:38.576Z,997.92
2019-03-15T03:29:04.737Z,997.96
2019-03-15T03:29:30.833Z,997.93
2019-03-15T03:29:57.674Z,997.94
2019-03-15T03:30:24.785Z,997.95
2019-03-15T03:30:51.885Z,997.92
2019-03-15T03:31:18.986Z,997.92
2019-03-15T03:31:46.065Z,997.91
2019-03-15T03:32:13.509Z,997.94
2019-03-15T03:32:40.093Z,997.92
2019-03-15T03:33:06.514Z,997.92
2019-03-15T03:33:33.628Z,997.97
2019-03-15T03:34:00.757Z,997.85
2019-03-15T03:34:27.853Z,997.94
2019-03-15T03:34:55.000Z,997.92
2019-03-15T03:35:21.658Z,997.92
2019-03-15T03:35:47.787Z,998
2019-03-15T03:36:13.901Z,997.96
2019-03-15T03:36:40.015Z,997.89
2019-03-15T03:37:08.131Z,997.97
2019-03-15T03:37:34.648Z,997.92
2019-03-15T03:38:01.177Z,997.96
2019-03-15T03:38:28.035Z,997.92
2019-03-15T03:38:54.823Z,997.86
2019-03-15T03:39:21.923Z,997.91
2019-03-15T03:39:48.092Z,997.86
2019-03-15T03:40:14.197Z,997.91
2019-03-15T03:40:41.307Z,997.92
2019-03-15T03:41:07.513Z,997.91
2019-03-15T03:41:33.873Z,997.93
2019-03-15T03:42:00.621Z,997.86
2019-03-15T03:42:26.729Z,997.85
2019-03-15T03:42:52.838Z,997.8
2019-03-15T03:43:18.998Z,997.83
2019-03-15T03:43:45.147Z,997.87
2019-03-15T03:44:11.219Z,997.81
2019-03-15T03:44:37.354Z,997.83
2019-03-15T03:45:03.465Z,997.84
2019-03-15T03:45:29.583Z,997.79
2019-03-15T03:45:55.703Z,997.76
2019-03-15T03:46:21.822Z,997.85
2019-03-15T03:46:48.260Z,997.81
2019-03-15T03:47:14.357Z,997.81
2019-03-15T03:47:41.451Z,997.76
2019-03-15T03:48:08.489Z,997.84
2019-03-15T03:48:35.674Z,997.82
2019-03-15T03:49:01.879Z,997.85
2019-03-15T03:49:28.109Z,997.86
2019-03-15T03:49:54.240Z,997.83
2019-03-15T03:50:20.350Z,997.88
2019-03-15T03:50:46.456Z,997.94
2019-03-15T03:51:14.030Z,997.92
2019-03-15T03:51:40.134Z,997.89
2019-03-15T03:52:06.238Z,997.87
2019-03-15T03:52:32.342Z,997.87
2019-03-15T03:52:58.455Z,997.84
2019-03-15T03:53:24.565Z,997.79
2019-03-15T03:53:50.702Z,997.85
2019-03-15T03:54:16.810Z,997.86
2019-03-15T03:54:42.916Z,997.88
2019-03-15T03:55:09.086Z,997.9
2019-03-15T03:55:36.003Z,997.9
2019-03-15T03:56:02.261Z,997.91
2019-03-15T03:56:28.367Z,997.85
2019-03-15T03:56:54.475Z,997.88
2019-03-15T03:57:20.970Z,997.87
2019-03-15T03:57:47.128Z,997.91
2019-03-15T03:58:13.242Z,997.89
2019-03-15T03:58:39.348Z,997.88
2019-03-15T03:59:05.477Z,997.85
2019-03-15T03:59:31.623Z,997.89
2019-03-15T03:59:57.729Z,997.88
2019-03-15T04:00:23.926Z,997.94
2019-03-15T04:00:50.035Z,997.91
2019-03-15T04:01:17.129Z,997.92
2019-03-15T04:01:43.243Z,997.91
2019-03-15T04:02:09.343Z,997.96
2019-03-15T04:02:36.481Z,997.95
2019-03-15T04:03:02.612Z,997.91
2019-03-15T04:03:28.721Z,997.89
2019-03-15T04:03:54.855Z,997.85
2019-03-15T04:04:20.971Z,997.87
2019-03-15T04:04:47.071Z,997.84
2019-03-15T04:05:13.183Z,997.87
2019-03-15T04:05:39.551Z,997.88
2019-03-15T04:06:05.662Z,997.87
2019-03-15T04:06:31.795Z,997.84
2019-03-15T04:06:57.903Z,997.89
2019-03-15T04:07:24.013Z,997.86
2019-03-15T04:07:50.118Z,997.83
2019-03-15T04:08:16.230Z,997.86
2019-03-15T04:08:42.339Z,997.82
2019-03-15T04:09:08.445Z,997.78
2019-03-15T04:09:34.546Z,997.86
2019-03-15T04:10:00.883Z,997.7
2019-03-15T04:10:27.177Z,997.73
2019-03-15T04:10:53.284Z,997.74
2019-03-15T04:11:19.391Z,997.69
2019-03-15T04:11:55.061Z,997.69
2019-03-15T04:12:14.570Z,997.72
2019-03-15T04:12:40.684Z,997.68
2019-03-15T04:13:06.790Z,997.68
2019-03-15T04:13:32.958Z,997.67
2019-03-15T04:13:59.061Z,997.67
2019-03-15T04:14:25.169Z,997.67
2019-03-15T04:14:51.274Z,997.65
2019-03-15T04:15:17.379Z,997.67
2019-03-15T04:15:43.489Z,997.67
2019-03-15T04:16:09.674Z,997.68
2019-03-15T04:16:35.800Z,997.66
2019-03-15T04:17:02.234Z,997.64
2019-03-15T04:17:28.334Z,997.66
2019-03-15T04:17:54.441Z,997.64
2019-03-15T04:18:20.579Z,997.63
2019-03-15T04:18:46.687Z,997.6
2019-03-15T04:19:12.823Z,997.64
2019-03-15T04:19:38.928Z,997.69
2019-03-15T04:20:06.024Z,997.64
2019-03-15T04:20:32.139Z,997.65
2019-03-15T04:20:58.295Z,997.66
2019-03-15T04:21:24.399Z,997.65
2019-03-15T04:21:50.528Z,997.69
2019-03-15T04:22:16.640Z,997.71
2019-03-15T04:22:42.750Z,997.64
2019-03-15T04:23:09.999Z,997.6
2019-03-15T04:23:38.162Z,997.61
2019-03-15T04:24:03.209Z,997.61
2019-03-15T04:24:29.313Z,997.58
2019-03-15T04:24:55.416Z,997.64
2019-03-15T04:25:22.513Z,997.62
2019-03-15T04:25:49.621Z,997.6
2019-03-15T04:26:15.762Z,997.6
2019-03-15T04:26:42.138Z,997.62
2019-03-15T04:27:08.253Z,997.64
2019-03-15T04:27:34.361Z,997.6
2019-03-15T04:28:00.466Z,997.7
2019-03-15T04:28:26.577Z,997.72
2019-03-15T04:28:52.683Z,997.71
2019-03-15T04:29:18.792Z,997.67
2019-03-15T04:29:44.902Z,997.74
2019-03-15T04:30:11.999Z,997.78
2019-03-15T04:30:38.133Z,997.77
2019-03-15T04:31:04.265Z,997.79
2019-03-15T04:31:30.379Z,997.79
2019-03-15T04:31:56.481Z,997.78
2019-03-15T04:32:22.685Z,997.77
2019-03-15T04:32:49.840Z,997.79
2019-03-15T04:33:15.942Z,997.78
2019-03-15T04:33:42.079Z,997.81
2019-03-15T04:34:08.188Z,997.81
2019-03-15T04:34:34.291Z,997.77
2019-03-15T04:35:00.458Z,997.82
2019-03-15T04:35:26.530Z,997.8
2019-03-15T04:35:52.638Z,997.81
2019-03-15T04:36:18.746Z,997.77
2019-03-15T04:36:44.857Z,997.77
2019-03-15T04:37:10.996Z,997.73
2019-03-15T04:37:38.094Z,997.77
2019-03-15T04:38:04.203Z,997.78
2019-03-15T04:38:30.303Z,997.73
2019-03-15T04:38:56.431Z,997.74
2019-03-15T04:39:23.525Z,997.74
2019-03-15T04:39:49.637Z,997.75
2019-03-15T04:40:15.777Z,997.74
2019-03-15T04:40:41.886Z,997.73
2019-03-15T04:41:07.997Z,997.74
2019-03-15T04:41:34.102Z,997.78
2019-03-15T04:42:00.214Z,997.78
2019-03-15T04:42:26.416Z,997.81
2019-03-15T04:42:52.477Z,997.8
2019-03-15T04:43:18.586Z,997.77
2019-03-15T04:43:44.700Z,997.79
2019-03-15T04:44:10.807Z,997.76
2019-03-15T04:44:36.996Z,997.77
2019-03-15T04:45:03.114Z,997.76
2019-03-15T04:45:29.213Z,997.77
2019-03-15T04:45:55.313Z,997.74
2019-03-15T04:46:21.427Z,997.74
2019-03-15T04:46:47.527Z,997.73
2019-03-15T04:47:13.635Z,997.71
2019-03-15T04:47:39.738Z,997.71
2019-03-15T04:48:05.879Z,997.73
2019-03-15T04:48:31.984Z,997.69
2019-03-15T04:48:58.095Z,997.73
2019-03-15T04:49:24.232Z,997.7
2019-03-15T04:49:50.349Z,997.68
2019-03-15T04:50:16.481Z,997.65
2019-03-15T04:50:42.596Z,997.66
2019-03-15T04:51:08.764Z,997.63
2019-03-15T04:51:34.868Z,997.66
2019-03-15T04:52:00.976Z,997.62
2019-03-15T04:52:27.081Z,997.59
2019-03-15T04:52:53.187Z,997.57
2019-03-15T04:53:19.294Z,997.61
2019-03-15T04:53:45.501Z,997.62
2019-03-15T04:54:11.591Z,997.56
2019-03-15T04:54:37.779Z,997.59
2019-03-15T04:55:03.853Z,997.6
2019-03-15T04:55:29.957Z,997.59
2019-03-15T04:55:56.096Z,997.57
2019-03-15T04:56:22.197Z,997.58
2019-03-15T04:56:48.301Z,997.55
2019-03-15T04:57:14.415Z,997.54
2019-03-15T04:57:40.521Z,997.51
2019-03-15T04:58:06.650Z,997.5
2019-03-15T04:58:32.764Z,997.5
2019-03-15T04:58:58.896Z,997.52
2019-03-15T04:59:25.030Z,997.52
2019-03-15T04:59:51.142Z,997.5
2019-03-15T05:00:17.251Z,997.49
2019-03-15T05:00:43.358Z,997.53
2019-03-15T05:01:09.469Z,997.5
2019-03-15T05:01:35.577Z,997.51
2019-03-15T05:02:01.687Z,997.51
2019-03-15T05:02:27.793Z,997.46
2019-03-15T05:02:53.900Z,997.45
2019-03-15T05:03:20.011Z,997.45
2019-03-15T05:03:46.141Z,997.42
2019-03-15T05:04:12.252Z,997.46
2019-03-15T05:04:38.362Z,997.46
2019-03-15T05:05:05.452Z,997.42
2019-03-15T05:05:31.566Z,997.43
2019-03-15T05:06:03.377Z,997.44
2019-03-15T05:06:25.767Z,997.43
2019-03-15T05:06:51.874Z,997.41
2019-03-15T05:07:17.978Z,997.42
2019-03-15T05:07:44.085Z,997.42
2019-03-15T05:08:10.192Z,997.46
2019-03-15T05:08:36.302Z,997.42
2019-03-15T05:09:02.417Z,997.47
2019-03-15T05:09:28.549Z,997.47
2019-03-15T05:09:54.685Z,997.51
2019-03-15T05:10:20.799Z,997.49
2019-03-15T05:10:46.928Z,997.46
2019-03-15T05:11:13.035Z,997.48
2019-03-15T05:11:39.179Z,997.48
2019-03-15T05:12:05.319Z,997.42
2019-03-15T05:12:31.434Z,997.4
2019-03-15T05:12:57.538Z,997.42
2019-03-15T05:13:23.649Z,997.38
2019-03-15T05:13:49.750Z,997.44
2019-03-15T05:14:15.861Z,997.4
2019-03-15T05:14:41.995Z,997.37
2019-03-15T05:15:08.104Z,997.39
2019-03-15T05:15:34.211Z,997.42
2019-03-15T05:16:00.320Z,997.42
2019-03-15T05:16:26.431Z,997.41
2019-03-15T05:16:52.544Z,997.46
2019-03-15T05:17:18.657Z,997.43
2019-03-15T05:17:44.755Z,997.42
2019-03-15T05:18:10.871Z,997.4
2019-03-15T05:18:36.975Z,997.44
2019-03-15T05:19:03.085Z,997.35
2019-03-15T05:19:29.202Z,997.29
2019-03-15T05:19:55.307Z,997.42
2019-03-15T05:20:21.482Z,997.32
2019-03-15T05:20:47.537Z,997.34
2019-03-15T05:21:13.657Z,997.31
2019-03-15T05:21:39.750Z,997.32
2019-03-15T05:22:05.857Z,997.38
2019-03-15T05:22:32.005Z,997.32
2019-03-15T05:22:58.109Z,997.35
2019-03-15T05:23:24.220Z,997.34
2019-03-15T05:23:50.325Z,997.41
2019-03-15T05:24:16.438Z,997.4
2019-03-15T05:24:42.545Z,997.37
2019-03-15T05:25:08.657Z,997.32
2019-03-15T05:25:35.298Z,997.38
2019-03-15T05:26:01.442Z,997.38
2019-03-15T05:26:27.581Z,997.33
2019-03-15T05:26:53.690Z,997.38
2019-03-15T05:27:19.799Z,997.39
2019-03-15T05:27:45.929Z,997.35
2019-03-15T05:28:12.034Z,997.37
2019-03-15T05:28:38.140Z,997.36
2019-03-15T05:29:04.262Z,997.34